Hookerton, North Carolina
Current Conditions -  °F | °C
As of 12:15 AM on Saturday 20 Dec 2014 (Local Time) from KISO Reporting Station
Clear Clear  
Wind Chill: 34°   Ceiling: Unl
Heat Index: 34°   Visibility: 10mi
Dew Point: 32°   Wind: 0mph
Humidity: 91%   Direction: NA
Pressure: 30.22"   Gusts: NA
Location:  35.43°N, 77.59°W
Report Text: KISO 200515Z AUTO 00000KT 10SM CLR 01/00 A3022 RMK AO2 T00121001
Loading
Personal Weather Stations






























Interactive Weather Map New forecast layout! Learn more

10-Day Weather Forecast

Advertisements
Track Severe Weather on mobile